createdAt,value
2018-05-08T00:00:56.037Z,18.17
2018-05-08T00:01:55.984Z,18.11
2018-05-08T00:02:55.923Z,18.06
2018-05-08T00:03:55.969Z,18.05
2018-05-08T00:04:55.968Z,18.02
2018-05-08T00:05:55.844Z,18.01
2018-05-08T00:06:55.895Z,17.93
2018-05-08T00:07:55.888Z,17.87
2018-05-08T00:08:55.809Z,17.84
2018-05-08T00:09:55.815Z,17.86
2018-05-08T00:10:55.772Z,17.84
2018-05-08T00:11:55.709Z,17.94
2018-05-08T00:12:55.736Z,17.93
2018-05-08T00:13:55.734Z,17.90
2018-05-08T00:14:55.714Z,17.88
2018-05-08T00:15:55.643Z,17.86
2018-05-08T00:16:55.576Z,17.83
2018-05-08T00:17:55.626Z,17.62
2018-05-08T00:18:55.591Z,17.76
2018-05-08T00:19:55.517Z,17.57
2018-05-08T00:20:55.589Z,17.59
2018-05-08T00:21:55.518Z,17.59
2018-05-08T00:22:55.457Z,17.57
2018-05-08T00:23:55.536Z,17.57
2018-05-08T00:24:55.453Z,17.53
2018-05-08T00:25:55.360Z,17.50
2018-05-08T00:26:55.395Z,17.43
2018-05-08T00:27:55.422Z,17.50
2018-05-08T00:28:55.296Z,17.43
2018-05-08T00:29:55.336Z,17.32
2018-05-08T00:30:55.332Z,17.38
2018-05-08T00:31:55.249Z,17.30
2018-05-08T00:32:55.255Z,17.31
2018-05-08T00:33:55.236Z,17.32
2018-05-08T00:34:55.140Z,17.32
2018-05-08T00:35:55.242Z,17.22
2018-05-08T00:36:55.093Z,17.32
2018-05-08T00:37:55.175Z,17.35
2018-05-08T00:38:55.075Z,17.35
2018-05-08T00:39:55.036Z,17.22
2018-05-08T00:40:55.105Z,17.32
2018-05-08T00:41:54.968Z,17.20
2018-05-08T00:42:55.021Z,17.20
2018-05-08T00:43:54.965Z,17.27
2018-05-08T00:44:54.889Z,17.22
2018-05-08T00:45:54.937Z,17.09
2018-05-08T00:46:54.843Z,17.04
2018-05-08T00:47:54.853Z,17.12
2018-05-08T00:48:54.923Z,16.98
2018-05-08T00:49:54.761Z,16.99
2018-05-08T00:50:54.785Z,16.92
2018-05-08T00:51:54.775Z,17.04
2018-05-08T00:52:54.788Z,17.10
2018-05-08T00:53:54.757Z,17.07
2018-05-08T00:54:54.645Z,16.92
2018-05-08T00:55:54.689Z,16.99
2018-05-08T00:56:54.705Z,16.90
2018-05-08T00:57:54.568Z,16.76
2018-05-08T00:58:54.645Z,16.59
2018-05-08T00:59:54.608Z,16.55
2018-05-08T01:00:54.488Z,16.49
2018-05-08T01:01:54.511Z,16.52
2018-05-08T01:02:54.535Z,16.54
2018-05-08T01:03:54.433Z,16.58
2018-05-08T01:04:54.455Z,16.54
2018-05-08T01:05:54.377Z,16.46
2018-05-08T01:06:54.351Z,16.58
2018-05-08T01:07:54.322Z,16.54
2018-05-08T01:08:54.289Z,16.55
2018-05-08T01:09:54.278Z,16.51
2018-05-08T01:10:54.241Z,16.36
2018-05-08T01:11:54.222Z,16.34
2018-05-08T01:12:54.195Z,16.37
2018-05-08T01:13:54.171Z,16.36
2018-05-08T01:14:54.141Z,16.25
2018-05-08T01:15:54.118Z,16.29
2018-05-08T01:16:54.090Z,16.25
2018-05-08T01:17:54.073Z,16.24
2018-05-08T01:18:54.044Z,16.26
2018-05-08T01:19:54.019Z,16.29
2018-05-08T01:20:53.988Z,16.17
2018-05-08T01:21:53.958Z,16.09
2018-05-08T01:22:53.933Z,16.16
2018-05-08T01:23:53.918Z,16.22
2018-05-08T01:24:53.903Z,16.14
2018-05-08T01:25:53.868Z,16.16
2018-05-08T01:26:53.843Z,16.09
2018-05-08T01:27:53.815Z,16.10
2018-05-08T01:28:53.785Z,16.03
2018-05-08T01:29:53.758Z,15.98
2018-05-08T01:30:53.743Z,15.93
2018-05-08T01:31:53.715Z,15.95
2018-05-08T01:32:53.682Z,15.90
2018-05-08T01:33:53.656Z,15.85
2018-05-08T01:34:53.635Z,15.84
2018-05-08T01:35:53.610Z,15.70
2018-05-08T01:36:53.599Z,15.73
2018-05-08T01:37:53.569Z,15.76
2018-05-08T01:38:53.536Z,15.60
2018-05-08T01:39:53.522Z,15.66
2018-05-08T01:40:53.558Z,15.72
2018-05-08T01:41:53.452Z,15.77
2018-05-08T01:42:53.449Z,15.73
2018-05-08T01:43:53.427Z,15.69
2018-05-08T01:44:53.384Z,15.72
2018-05-08T01:45:53.356Z,15.68
2018-05-08T01:46:53.337Z,15.70
2018-05-08T01:47:53.300Z,15.72
2018-05-08T01:48:53.276Z,15.63
2018-05-08T01:49:53.269Z,15.65
2018-05-08T01:50:53.229Z,15.68
2018-05-08T01:51:53.202Z,15.62
2018-05-08T01:52:53.172Z,15.63
2018-05-08T01:53:53.155Z,15.52
2018-05-08T01:54:53.124Z,15.58
2018-05-08T01:55:55.620Z,15.62
2018-05-08T01:56:53.072Z,15.52
2018-05-08T01:57:53.049Z,15.54
2018-05-08T01:58:53.018Z,15.52
2018-05-08T01:59:53.009Z,15.51
2018-05-08T02:00:52.971Z,15.43
2018-05-08T02:01:52.949Z,15.38
2018-05-08T02:02:52.919Z,15.44
2018-05-08T02:03:52.896Z,15.32
2018-05-08T02:04:52.870Z,15.36
2018-05-08T02:05:52.842Z,15.41
2018-05-08T02:06:52.819Z,15.30
2018-05-08T02:07:52.789Z,15.30
2018-05-08T02:08:52.763Z,15.33
2018-05-08T02:09:52.737Z,15.29
2018-05-08T02:10:52.712Z,15.23
2018-05-08T02:11:52.686Z,15.26
2018-05-08T02:12:52.660Z,15.26
2018-05-08T02:13:52.641Z,15.22
2018-05-08T02:14:52.621Z,15.05
2018-05-08T02:15:52.588Z,15.10
2018-05-08T02:16:52.554Z,15.05
2018-05-08T02:17:52.533Z,15.14
2018-05-08T02:18:52.518Z,15.10
2018-05-08T02:19:52.480Z,15.11
2018-05-08T02:20:52.453Z,15.17
2018-05-08T02:21:52.421Z,15.03
2018-05-08T02:22:52.399Z,15.07
2018-05-08T02:23:52.439Z,15.12
2018-05-08T02:24:52.351Z,15.10
2018-05-08T02:25:52.383Z,15.11
2018-05-08T02:26:52.320Z,15.11
2018-05-08T02:27:52.276Z,15.07
2018-05-08T02:28:52.247Z,15.07
2018-05-08T02:29:52.232Z,15.15
2018-05-08T02:30:52.201Z,15.07
2018-05-08T02:31:52.168Z,15.03
2018-05-08T02:32:52.150Z,15.03
2018-05-08T02:33:52.117Z,15.03
2018-05-08T02:34:52.090Z,14.95
2018-05-08T02:35:52.154Z,14.92
2018-05-08T02:36:52.038Z,14.89
2018-05-08T02:37:52.013Z,14.90
2018-05-08T02:38:51.992Z,15.05
2018-05-08T02:39:51.963Z,15.12
2018-05-08T02:40:51.935Z,15.08
2018-05-08T02:41:51.905Z,15.10
2018-05-08T02:42:51.876Z,15.07
2018-05-08T02:43:51.851Z,15.07
2018-05-08T02:44:51.835Z,15.14
2018-05-08T02:45:51.812Z,15.19
2018-05-08T02:46:51.788Z,15.22
2018-05-08T02:47:51.757Z,15.29
2018-05-08T02:48:51.732Z,15.26
2018-05-08T02:49:51.701Z,15.22
2018-05-08T02:50:51.674Z,15.29
2018-05-08T02:51:51.648Z,15.27
2018-05-08T02:52:51.623Z,15.25
2018-05-08T02:53:51.592Z,15.22
2018-05-08T02:54:51.579Z,15.25
2018-05-08T02:55:51.546Z,15.32
2018-05-08T02:56:51.516Z,15.27
2018-05-08T02:57:51.500Z,15.14
2018-05-08T02:58:51.471Z,15.20
2018-05-08T02:59:51.439Z,15.26
2018-05-08T03:00:51.410Z,15.27
2018-05-08T03:01:51.382Z,15.15
2018-05-08T03:02:51.363Z,15.14
2018-05-08T03:03:51.336Z,15.19
2018-05-08T03:04:51.309Z,15.26
2018-05-08T03:05:51.295Z,15.32
2018-05-08T03:06:51.252Z,15.33
2018-05-08T03:07:51.237Z,15.27
2018-05-08T03:08:51.205Z,15.22
2018-05-08T03:09:51.179Z,15.38
2018-05-08T03:10:51.163Z,15.33
2018-05-08T03:11:51.127Z,15.30
2018-05-08T03:12:51.108Z,15.26
2018-05-08T03:13:51.067Z,15.25
2018-05-08T03:14:51.042Z,15.26
2018-05-08T03:15:51.031Z,15.29
2018-05-08T03:16:50.998Z,15.25
2018-05-08T03:17:50.974Z,15.30
2018-05-08T03:18:50.949Z,15.25
2018-05-08T03:19:50.920Z,15.15
2018-05-08T03:20:50.887Z,15.12
2018-05-08T03:21:50.873Z,15.12
2018-05-08T03:22:50.855Z,15.08
2018-05-08T03:23:50.813Z,15.08
2018-05-08T03:24:50.782Z,15.10
2018-05-08T03:25:50.758Z,15.15
2018-05-08T03:26:50.732Z,15.11
2018-05-08T03:27:50.709Z,15.15
2018-05-08T03:28:50.679Z,15.12
2018-05-08T03:29:50.658Z,15.07
2018-05-08T03:30:50.630Z,15.10
2018-05-08T03:31:50.602Z,15.10
2018-05-08T03:32:50.569Z,15.01
2018-05-08T03:33:50.546Z,15.04
2018-05-08T03:34:50.525Z,15.01
2018-05-08T03:35:50.499Z,15.01
2018-05-08T03:36:50.470Z,15.07
2018-05-08T03:37:50.447Z,15.05
2018-05-08T03:38:50.409Z,15.03
2018-05-08T03:39:50.388Z,15.03
2018-05-08T03:40:50.368Z,15.04
2018-05-08T03:41:50.338Z,14.99
2018-05-08T03:42:50.310Z,15.01
2018-05-08T03:43:50.283Z,15.01
2018-05-08T03:44:50.260Z,15.07
2018-05-08T03:45:50.225Z,15.05
2018-05-08T03:46:50.203Z,15.04
2018-05-08T03:47:50.176Z,14.97
2018-05-08T03:48:50.154Z,15.03
2018-05-08T03:49:50.131Z,14.95
2018-05-08T03:50:50.106Z,14.92
2018-05-08T03:51:50.075Z,14.89
2018-05-08T03:52:50.049Z,14.95
2018-05-08T03:53:50.014Z,14.89
2018-05-08T03:54:49.996Z,14.85
2018-05-08T03:55:50.027Z,14.83
2018-05-08T03:56:49.945Z,14.85
2018-05-08T03:57:49.916Z,14.92
2018-05-08T03:58:49.916Z,14.87
2018-05-08T03:59:49.912Z,14.90
2018-05-08T04:00:49.834Z,14.92
2018-05-08T04:01:49.892Z,14.85
2018-05-08T04:02:49.784Z,14.90
2018-05-08T04:03:49.755Z,14.97
2018-05-08T04:04:49.744Z,14.95
2018-05-08T04:05:49.701Z,14.92
2018-05-08T04:06:49.680Z,14.92
2018-05-08T04:07:49.656Z,14.89
2018-05-08T04:08:49.630Z,15.05
2018-05-08T04:09:49.598Z,14.95
2018-05-08T04:10:49.583Z,14.92
2018-05-08T04:11:49.571Z,14.96
2018-05-08T04:12:49.521Z,14.90
2018-05-08T04:13:49.498Z,14.95
2018-05-08T04:14:49.472Z,15.01
2018-05-08T04:15:49.439Z,15.01
2018-05-08T04:16:49.416Z,14.93
2018-05-08T04:17:49.392Z,15.01
2018-05-08T04:18:49.354Z,15.08
2018-05-08T04:19:49.332Z,15.04
2018-05-08T04:20:49.309Z,14.96
2018-05-08T04:21:49.285Z,15.14
2018-05-08T04:22:49.260Z,15.11
2018-05-08T04:23:49.235Z,15.17
2018-05-08T04:24:49.201Z,15.11
2018-05-08T04:25:49.169Z,15.11
2018-05-08T04:26:49.163Z,15.17
2018-05-08T04:27:49.141Z,15.10
2018-05-08T04:28:49.100Z,15.17
2018-05-08T04:29:49.068Z,15.17
2018-05-08T04:30:49.050Z,15.05
2018-05-08T04:31:49.014Z,15.08
2018-05-08T04:32:48.991Z,15.10
2018-05-08T04:33:48.964Z,15.05
2018-05-08T04:34:48.939Z,15.01
2018-05-08T04:35:48.914Z,14.96
2018-05-08T04:36:48.889Z,15.10
2018-05-08T04:37:48.858Z,15.15
2018-05-08T04:38:48.832Z,15.19
2018-05-08T04:39:48.805Z,15.14
2018-05-08T04:40:48.780Z,15.14
2018-05-08T04:41:48.761Z,15.14
2018-05-08T04:42:48.722Z,15.11
2018-05-08T04:43:48.695Z,15.14
2018-05-08T04:44:48.675Z,15.12
2018-05-08T04:45:48.657Z,15.17
2018-05-08T04:46:48.630Z,15.15
2018-05-08T04:47:48.697Z,15.15
2018-05-08T04:48:48.581Z,15.12
2018-05-08T04:49:48.665Z,15.12
2018-05-08T04:50:48.569Z,15.26
2018-05-08T04:51:48.575Z,15.11
2018-05-08T04:52:48.533Z,15.19
2018-05-08T04:53:48.563Z,15.26
2018-05-08T04:54:48.499Z,15.26
2018-05-08T04:55:48.511Z,15.10
2018-05-08T04:56:48.458Z,15.22
2018-05-08T04:57:48.404Z,15.26
2018-05-08T04:58:48.373Z,15.19
2018-05-08T04:59:48.300Z,15.29
2018-05-08T05:00:48.361Z,15.19
2018-05-08T05:01:48.273Z,15.26
2018-05-08T05:02:48.301Z,15.27
2018-05-08T05:03:48.210Z,15.26
2018-05-08T05:04:48.225Z,15.27
2018-05-08T05:05:48.135Z,15.41
2018-05-08T05:06:48.173Z,15.22
2018-05-08T05:07:48.086Z,15.27
2018-05-08T05:08:48.167Z,15.25
2018-05-08T05:09:48.069Z,15.33
2018-05-08T05:10:48.050Z,15.38
2018-05-08T05:11:47.976Z,15.35
2018-05-08T05:12:48.000Z,15.35
2018-05-08T05:13:47.976Z,15.36
2018-05-08T05:14:47.942Z,15.30
2018-05-08T05:15:47.910Z,15.33
2018-05-08T05:16:47.906Z,15.32
2018-05-08T05:17:47.877Z,15.45
2018-05-08T05:18:47.831Z,15.41
2018-05-08T05:19:47.812Z,15.44
2018-05-08T05:20:47.788Z,15.40
2018-05-08T05:21:47.760Z,15.52
2018-05-08T05:22:47.709Z,15.60
2018-05-08T05:23:47.724Z,15.65
2018-05-08T05:24:47.669Z,15.63
2018-05-08T05:25:47.649Z,15.76
2018-05-08T05:26:47.641Z,15.73
2018-05-08T05:27:47.620Z,15.80
2018-05-08T05:28:47.590Z,15.83
2018-05-08T05:29:47.536Z,15.90
2018-05-08T05:30:47.567Z,15.93
2018-05-08T05:31:47.493Z,15.83
2018-05-08T05:32:47.475Z,15.93
2018-05-08T05:33:47.422Z,16.02
2018-05-08T05:34:47.416Z,16.00
2018-05-08T05:35:47.334Z,16.09
2018-05-08T05:36:47.360Z,16.05
2018-05-08T05:37:47.341Z,16.05
2018-05-08T05:38:47.339Z,16.09
2018-05-08T05:39:47.292Z,16.10
2018-05-08T05:40:47.272Z,16.26
2018-05-08T05:41:47.233Z,16.22
2018-05-08T05:42:47.241Z,16.25
2018-05-08T05:43:47.184Z,16.33
2018-05-08T05:44:47.155Z,16.29
2018-05-08T05:45:47.153Z,16.36
2018-05-08T05:46:47.093Z,16.33
2018-05-08T05:47:47.140Z,16.36
2018-05-08T05:48:47.097Z,16.37
2018-05-08T05:49:47.021Z,16.44
2018-05-08T05:50:47.002Z,16.46
2018-05-08T05:51:46.989Z,16.49
2018-05-08T05:52:46.956Z,16.55
2018-05-08T05:53:46.926Z,16.55
2018-05-08T05:54:46.895Z,16.49
2018-05-08T05:55:46.885Z,16.47
2018-05-08T05:56:46.854Z,16.57
2018-05-08T05:57:46.845Z,16.62
2018-05-08T05:58:46.829Z,16.69
2018-05-08T05:59:47.699Z,16.65
2018-05-08T06:00:46.748Z,16.70
2018-05-08T06:01:46.728Z,16.76
2018-05-08T06:02:46.676Z,16.72
2018-05-08T06:03:46.684Z,16.79
2018-05-08T06:04:46.632Z,16.83
2018-05-08T06:05:46.566Z,16.91
2018-05-08T06:06:46.582Z,16.97
2018-05-08T06:07:46.563Z,16.97
2018-05-08T06:08:46.537Z,16.99
2018-05-08T06:09:46.517Z,16.95
2018-05-08T06:10:46.517Z,17.06
2018-05-08T06:11:46.489Z,17.09
2018-05-08T06:12:46.431Z,17.17
2018-05-08T06:13:46.443Z,17.17
2018-05-08T06:14:46.392Z,17.19
2018-05-08T06:15:46.353Z,17.31
2018-05-08T06:16:46.351Z,17.28
2018-05-08T06:17:46.310Z,17.32
2018-05-08T06:18:46.278Z,17.32
2018-05-08T06:19:46.251Z,17.41
2018-05-08T06:20:46.232Z,17.35
2018-05-08T06:21:46.172Z,17.46
2018-05-08T06:22:46.362Z,17.46
2018-05-08T06:23:46.181Z,17.52
2018-05-08T06:24:46.140Z,17.47
2018-05-08T06:25:46.078Z,17.62
2018-05-08T06:26:46.043Z,17.54
2018-05-08T06:27:46.059Z,17.59
2018-05-08T06:28:46.030Z,17.65
2018-05-08T06:29:46.247Z,17.62
2018-05-08T06:30:46.123Z,17.65
2018-05-08T06:31:45.960Z,17.72
2018-05-08T06:32:45.939Z,17.71
2018-05-08T06:33:45.915Z,17.79
2018-05-08T06:34:45.877Z,17.86
2018-05-08T06:35:45.810Z,17.91
2018-05-08T06:36:45.855Z,17.94
2018-05-08T06:37:45.805Z,17.91
2018-05-08T06:38:45.780Z,18.03
2018-05-08T06:39:45.765Z,18.05
2018-05-08T06:40:45.753Z,18.17
2018-05-08T06:41:45.708Z,18.11
2018-05-08T06:42:45.660Z,18.17
2018-05-08T06:43:45.672Z,18.15
2018-05-08T06:44:45.650Z,18.15
2018-05-08T06:45:45.624Z,18.31
2018-05-08T06:46:45.688Z,18.26
2018-05-08T06:47:45.542Z,18.26
2018-05-08T06:48:45.550Z,18.28
2018-05-08T06:49:45.476Z,18.31
2018-05-08T06:50:45.504Z,18.36
2018-05-08T06:51:45.452Z,18.48
2018-05-08T06:52:45.457Z,18.60
2018-05-08T06:53:45.440Z,18.51
2018-05-08T06:54:45.395Z,18.61
2018-05-08T06:55:45.386Z,18.60
2018-05-08T06:56:45.339Z,18.68
2018-05-08T06:57:45.317Z,18.78
2018-05-08T06:58:45.290Z,18.70
2018-05-08T06:59:45.291Z,18.71
2018-05-08T07:00:45.254Z,18.76
2018-05-08T07:01:45.223Z,18.81
2018-05-08T07:02:45.196Z,18.86
2018-05-08T07:03:45.166Z,18.88
2018-05-08T07:04:45.154Z,18.94
2018-05-08T07:05:45.142Z,18.94
2018-05-08T07:06:45.072Z,18.97
2018-05-08T07:07:45.081Z,19.05
2018-05-08T07:08:45.055Z,19.20
2018-05-08T07:09:45.028Z,19.19
2018-05-08T07:10:44.994Z,19.24
2018-05-08T07:11:44.970Z,19.22
2018-05-08T07:12:44.948Z,19.35
2018-05-08T07:13:44.926Z,19.38
2018-05-08T07:14:44.916Z,19.47
2018-05-08T07:15:45.059Z,19.60
2018-05-08T07:16:44.842Z,19.60
2018-05-08T07:17:44.835Z,19.72
2018-05-08T07:18:44.806Z,19.75
2018-05-08T07:19:44.791Z,19.75
2018-05-08T07:20:44.751Z,19.82
2018-05-08T07:21:44.749Z,19.94
2018-05-08T07:22:44.705Z,20.02
2018-05-08T07:23:44.690Z,19.99
2018-05-08T07:24:44.676Z,20.05
2018-05-08T07:25:44.620Z,20.09
2018-05-08T07:26:44.599Z,20.15
2018-05-08T07:27:46.223Z,20.09
2018-05-08T07:28:44.556Z,20.17
2018-05-08T07:29:44.541Z,20.26
2018-05-08T07:30:44.565Z,20.23
2018-05-08T07:31:44.499Z,20.26
2018-05-08T07:32:44.472Z,20.30
2018-05-08T07:33:44.474Z,20.39
2018-05-08T07:34:44.430Z,20.41
2018-05-08T07:35:44.394Z,20.53
2018-05-08T07:36:44.374Z,20.70
2018-05-08T07:37:44.371Z,20.85
2018-05-08T07:38:44.319Z,20.82
2018-05-08T07:39:44.316Z,20.90
2018-05-08T07:40:44.270Z,20.88
2018-05-08T07:41:44.258Z,20.98
2018-05-08T07:42:44.229Z,20.93
2018-05-08T07:43:44.197Z,21.00
2018-05-08T07:44:44.188Z,20.93
2018-05-08T07:45:44.169Z,21.05
2018-05-08T07:46:44.137Z,21.19
2018-05-08T07:47:44.097Z,21.18
2018-05-08T07:48:44.093Z,21.16
2018-05-08T07:49:44.065Z,21.28
2018-05-08T07:50:44.044Z,21.25
2018-05-08T07:51:44.031Z,21.32
2018-05-08T07:52:43.993Z,21.38
2018-05-08T07:53:43.983Z,21.44
2018-05-08T07:54:43.948Z,21.48
2018-05-08T07:55:43.960Z,21.67
2018-05-08T07:56:43.920Z,21.67
2018-05-08T07:57:43.876Z,21.77
2018-05-08T07:58:43.843Z,21.91
2018-05-08T07:59:43.828Z,21.96
2018-05-08T08:00:43.813Z,21.91
2018-05-08T08:01:43.804Z,21.94
2018-05-08T08:02:43.759Z,21.88
2018-05-08T08:03:43.752Z,21.93
2018-05-08T08:04:43.714Z,21.93
2018-05-08T08:05:43.701Z,21.91
2018-05-08T08:06:43.674Z,22.04
2018-05-08T08:07:43.669Z,22.09
2018-05-08T08:08:43.650Z,22.16
2018-05-08T08:09:43.602Z,22.16
2018-05-08T08:10:43.583Z,22.21
2018-05-08T08:11:43.561Z,22.34
2018-05-08T08:12:43.479Z,22.44
2018-05-08T08:13:43.500Z,22.55
2018-05-08T08:14:43.480Z,22.61
2018-05-08T08:15:43.489Z,22.59
2018-05-08T08:16:43.444Z,22.73
2018-05-08T08:17:43.411Z,22.66
2018-05-08T08:18:43.402Z,22.67
2018-05-08T08:19:43.366Z,22.73
2018-05-08T08:20:43.347Z,22.73
2018-05-08T08:21:43.334Z,22.76
2018-05-08T08:22:43.334Z,22.74
2018-05-08T08:23:43.360Z,22.81
2018-05-08T08:24:43.269Z,22.83
2018-05-08T08:25:43.228Z,22.86
2018-05-08T08:26:43.243Z,22.85
2018-05-08T08:27:43.178Z,22.98
2018-05-08T08:28:43.190Z,22.98
2018-05-08T08:29:43.207Z,23.10
2018-05-08T08:30:43.135Z,23.13
2018-05-08T08:31:43.114Z,23.18
2018-05-08T08:32:43.111Z,23.17
2018-05-08T08:33:43.044Z,23.21
2018-05-08T08:34:43.061Z,23.28
2018-05-08T08:35:43.012Z,23.36
2018-05-08T08:36:42.978Z,23.31
2018-05-08T08:37:42.926Z,23.18
2018-05-08T08:38:42.901Z,23.33
2018-05-08T08:39:42.881Z,23.22
2018-05-08T08:40:42.852Z,23.26
2018-05-08T08:41:42.829Z,23.29
2018-05-08T08:42:42.818Z,23.39
2018-05-08T08:43:42.790Z,23.44
2018-05-08T08:44:42.764Z,23.46
2018-05-08T08:45:42.742Z,23.46
2018-05-08T08:46:42.719Z,23.45
2018-05-08T08:47:42.906Z,23.52
2018-05-08T08:48:42.692Z,23.52
2018-05-08T08:49:42.667Z,23.60
2018-05-08T08:50:42.638Z,23.66
2018-05-08T08:51:42.620Z,23.79
2018-05-08T08:52:42.590Z,23.86
2018-05-08T08:53:42.577Z,23.82
2018-05-08T08:54:42.571Z,23.88
2018-05-08T08:55:42.522Z,23.91
2018-05-08T08:56:42.513Z,24.04
2018-05-08T08:57:42.491Z,24.07
2018-05-08T08:58:42.465Z,24.06
2018-05-08T08:59:42.445Z,24.10
2018-05-08T09:00:42.424Z,24.15
2018-05-08T09:01:42.402Z,24.18
2018-05-08T09:02:42.382Z,24.22
2018-05-08T09:03:42.357Z,24.26
2018-05-08T09:04:42.329Z,24.18
2018-05-08T09:05:42.319Z,24.23
2018-05-08T09:06:42.288Z,24.26
2018-05-08T09:07:42.274Z,24.19
2018-05-08T09:08:42.250Z,24.26
2018-05-08T09:09:42.228Z,24.36
2018-05-08T09:10:42.210Z,24.37
2018-05-08T09:11:42.192Z,24.41
2018-05-08T09:12:42.173Z,24.40
2018-05-08T09:13:42.139Z,24.47
2018-05-08T09:14:42.123Z,24.58
2018-05-08T09:15:42.104Z,24.68
2018-05-08T09:16:42.079Z,24.89
2018-05-08T09:17:42.060Z,25.08
2018-05-08T09:18:42.040Z,25.01
2018-05-08T09:19:42.067Z,25.15
2018-05-08T09:20:41.999Z,25.18
2018-05-08T09:21:41.977Z,25.23
2018-05-08T09:22:41.967Z,25.34
2018-05-08T09:23:41.945Z,25.48
2018-05-08T09:24:41.911Z,25.52
2018-05-08T09:25:41.895Z,25.52
2018-05-08T09:26:41.869Z,25.63
2018-05-08T09:27:41.926Z,25.59
2018-05-08T09:28:41.841Z,25.58
2018-05-08T09:29:41.821Z,25.64
2018-05-08T09:30:41.795Z,25.70
2018-05-08T09:31:41.768Z,25.71
2018-05-08T09:32:41.766Z,25.73
2018-05-08T09:33:41.733Z,25.75
2018-05-08T09:34:41.722Z,25.58
2018-05-08T09:35:41.692Z,25.70
2018-05-08T09:36:41.663Z,25.61
2018-05-08T09:37:41.647Z,25.56
2018-05-08T09:38:41.655Z,25.56
2018-05-08T09:39:41.607Z,25.58
2018-05-08T09:40:41.592Z,25.64
2018-05-08T09:41:41.585Z,25.71
2018-05-08T09:42:41.551Z,25.81
2018-05-08T09:43:41.526Z,25.93
2018-05-08T09:44:41.508Z,25.81
2018-05-08T09:45:41.485Z,25.86
2018-05-08T09:46:41.474Z,25.96
2018-05-08T09:47:41.453Z,26.07
2018-05-08T09:48:41.424Z,26.21
2018-05-08T09:49:41.409Z,26.28
2018-05-08T09:50:41.443Z,26.46
2018-05-08T09:51:41.367Z,26.46
2018-05-08T09:52:41.349Z,26.49
2018-05-08T09:53:41.339Z,26.61
2018-05-08T09:54:41.306Z,26.65
2018-05-08T09:55:41.330Z,26.63
2018-05-08T09:56:41.260Z,26.61
2018-05-08T09:57:41.243Z,26.56
2018-05-08T09:58:41.224Z,26.60
2018-05-08T09:59:41.200Z,26.70
2018-05-08T10:00:41.190Z,26.64
2018-05-08T10:01:41.167Z,26.65
2018-05-08T10:02:41.157Z,26.75
2018-05-08T10:03:41.198Z,26.78
2018-05-08T10:04:41.118Z,26.82
2018-05-08T10:05:41.088Z,26.79
2018-05-08T10:06:41.092Z,26.61
2018-05-08T10:07:41.054Z,26.68
2018-05-08T10:08:41.034Z,26.82
2018-05-08T10:09:41.007Z,26.79
2018-05-08T10:10:40.999Z,26.83
2018-05-08T10:11:40.971Z,26.95
2018-05-08T10:12:40.958Z,26.86
2018-05-08T10:13:40.942Z,26.82
2018-05-08T10:14:40.910Z,26.85
2018-05-08T10:15:40.925Z,26.94
2018-05-08T10:16:40.868Z,26.86
2018-05-08T10:17:40.857Z,26.85
2018-05-08T10:18:40.840Z,26.86
2018-05-08T10:19:40.828Z,27.07
2018-05-08T10:20:40.839Z,27.25
2018-05-08T10:21:40.785Z,27.45
2018-05-08T10:22:40.770Z,27.63
2018-05-08T10:23:40.734Z,27.73
2018-05-08T10:24:40.734Z,27.76
2018-05-08T10:25:40.704Z,27.78
2018-05-08T10:26:40.717Z,27.87
2018-05-08T10:27:40.670Z,27.80
2018-05-08T10:28:40.644Z,27.93
2018-05-08T10:29:40.624Z,27.80
2018-05-08T10:30:40.609Z,27.91
2018-05-08T10:31:40.584Z,28.03
2018-05-08T10:32:40.571Z,28.10
2018-05-08T10:33:40.566Z,28.15
2018-05-08T10:34:40.599Z,28.12
2018-05-08T10:35:40.513Z,28.05
2018-05-08T10:36:40.495Z,28.01
2018-05-08T10:37:40.478Z,28.07
2018-05-08T10:38:40.512Z,28.00
2018-05-08T10:39:40.441Z,28.06
2018-05-08T10:40:40.424Z,28.25
2018-05-08T10:41:40.403Z,28.37
2018-05-08T10:42:40.436Z,28.42
2018-05-08T10:43:40.387Z,28.47
2018-05-08T10:44:40.346Z,28.43
2018-05-08T10:45:40.328Z,28.56
2018-05-08T10:46:40.310Z,28.62
2018-05-08T10:47:40.290Z,28.46
2018-05-08T10:48:40.283Z,28.43
2018-05-08T10:49:40.254Z,28.47
2018-05-08T10:50:40.236Z,28.50
2018-05-08T10:51:40.215Z,28.56
2018-05-08T10:52:40.198Z,28.65
2018-05-08T10:53:40.178Z,28.71
2018-05-08T10:54:40.159Z,28.71
2018-05-08T10:55:40.179Z,28.74
2018-05-08T10:56:40.122Z,28.66
2018-05-08T10:57:40.126Z,28.75
2018-05-08T10:58:40.093Z,28.94
2018-05-08T10:59:40.074Z,29.09
2018-05-08T11:00:40.048Z,28.94
2018-05-08T11:01:40.059Z,28.80
2018-05-08T11:02:40.016Z,28.72
2018-05-08T11:03:40.004Z,28.71
2018-05-08T11:04:39.982Z,28.56
2018-05-08T11:05:39.961Z,28.53
2018-05-08T11:06:39.940Z,28.52
2018-05-08T11:07:39.930Z,28.46
2018-05-08T11:08:39.907Z,28.75
2018-05-08T11:09:39.895Z,28.81
2018-05-08T11:10:39.984Z,28.84
2018-05-08T11:11:39.857Z,29.02
2018-05-08T11:12:39.840Z,29.09
2018-05-08T11:13:39.836Z,29.24
2018-05-08T11:14:39.806Z,29.43
2018-05-08T11:15:39.820Z,29.41
2018-05-08T11:16:39.783Z,29.54
2018-05-08T11:17:39.757Z,29.54
2018-05-08T11:18:39.735Z,29.56
2018-05-08T11:19:39.714Z,29.62
2018-05-08T11:20:39.705Z,29.52
2018-05-08T11:21:39.680Z,29.46
2018-05-08T11:22:39.664Z,29.47
2018-05-08T11:23:39.649Z,29.54
2018-05-08T11:24:39.620Z,29.84
2018-05-08T11:25:39.600Z,30.15
2018-05-08T11:26:39.780Z,30.53
2018-05-08T11:27:39.570Z,31.04
2018-05-08T11:28:39.552Z,31.68
2018-05-08T11:29:39.544Z,32.02
2018-05-08T11:30:39.519Z,32.24
2018-05-08T11:31:39.504Z,32.27
2018-05-08T11:32:39.486Z,32.64
2018-05-08T11:33:39.474Z,33.03
2018-05-08T11:34:39.451Z,33.35
2018-05-08T11:35:39.460Z,33.35
2018-05-08T11:36:39.461Z,33.36
2018-05-08T11:37:39.472Z,33.29
2018-05-08T11:38:39.384Z,33.52
2018-05-08T11:39:39.373Z,33.74
2018-05-08T11:40:39.359Z,33.84
2018-05-08T11:41:39.349Z,33.95
2018-05-08T11:42:39.326Z,34.40
2018-05-08T11:43:39.307Z,34.15
2018-05-08T11:44:39.312Z,33.66
2018-05-08T11:45:39.278Z,33.37
2018-05-08T11:46:39.263Z,33.48
2018-05-08T11:47:39.248Z,33.19
2018-05-08T11:48:39.255Z,33.51
2018-05-08T11:49:39.230Z,33.10
2018-05-08T11:50:39.215Z,33.13
2018-05-08T11:51:39.220Z,33.49
2018-05-08T11:52:39.178Z,33.76
2018-05-08T11:53:39.159Z,33.79
2018-05-08T11:54:39.163Z,33.26
2018-05-08T11:55:39.141Z,33.41
2018-05-08T11:56:39.123Z,33.64
2018-05-08T11:57:39.224Z,33.81
2018-05-08T11:58:39.102Z,33.74
2018-05-08T11:59:39.085Z,33.81
2018-05-08T12:00:39.080Z,33.92
2018-05-08T12:01:39.080Z,34.16
2018-05-08T12:02:39.156Z,34.10
2018-05-08T12:03:39.033Z,34.13
2018-05-08T12:04:39.033Z,34.11
2018-05-08T12:05:39.017Z,33.85
2018-05-08T12:06:39.029Z,33.48
2018-05-08T12:07:38.988Z,33.57
2018-05-08T12:08:38.975Z,33.24
2018-05-08T12:09:38.959Z,33.32
2018-05-08T12:10:38.945Z,33.36
2018-05-08T12:11:38.939Z,33.36
2018-05-08T12:12:38.918Z,33.13
2018-05-08T12:13:38.908Z,33.14
2018-05-08T12:14:38.913Z,32.91
2018-05-08T12:15:38.884Z,33.27
2018-05-08T12:16:38.874Z,33.35
2018-05-08T12:17:38.854Z,33.52
2018-05-08T12:18:38.845Z,33.74
2018-05-08T12:19:38.832Z,33.67
2018-05-08T12:20:38.834Z,33.62
2018-05-08T12:21:38.811Z,34.22
2018-05-08T12:22:38.828Z,34.40
2018-05-08T12:23:38.785Z,34.82
2018-05-08T12:24:38.803Z,34.94
2018-05-08T12:25:40.735Z,34.70
2018-05-08T12:26:40.735Z,34.25
2018-05-08T12:27:38.807Z,34.32
2018-05-08T12:28:38.785Z,34.76
2018-05-08T12:29:38.714Z,34.66
2018-05-08T12:30:38.718Z,34.01
2018-05-08T12:31:38.699Z,34.48
2018-05-08T12:32:38.686Z,34.76
2018-05-08T12:33:41.248Z,34.70
2018-05-08T12:34:38.720Z,34.70
2018-05-08T12:35:38.685Z,34.64
2018-05-08T12:36:38.661Z,34.34
2018-05-08T12:37:38.627Z,34.07
2018-05-08T12:38:38.617Z,33.82
2018-05-08T12:39:38.620Z,34.15
2018-05-08T12:40:38.608Z,34.03
2018-05-08T12:41:38.598Z,34.03
2018-05-08T12:42:41.230Z,33.76
2018-05-08T12:43:41.269Z,33.84
2018-05-08T12:44:38.580Z,34.16
2018-05-08T12:45:40.274Z,35.02
2018-05-08T12:46:38.551Z,35.14
2018-05-08T12:47:38.607Z,35.41
2018-05-08T12:48:38.530Z,35.38
2018-05-08T12:49:38.540Z,35.21
2018-05-08T12:50:38.507Z,34.80
2018-05-08T12:51:38.497Z,34.57
2018-05-08T12:52:38.493Z,35.29